createdAt,value
2017-02-06T00:00:09.925Z,0
2017-02-06T00:00:50.578Z,0
2017-02-06T00:01:31.234Z,0
2017-02-06T00:02:11.902Z,0
2017-02-06T00:02:52.541Z,0
2017-02-06T00:03:33.207Z,0
2017-02-06T00:04:13.836Z,0
2017-02-06T00:04:54.490Z,0
2017-02-06T00:05:35.151Z,0
2017-02-06T00:06:15.809Z,0
2017-02-06T00:06:56.462Z,0
2017-02-06T00:07:37.103Z,0
2017-02-06T00:08:17.758Z,0
2017-02-06T00:08:58.415Z,0
2017-02-06T00:09:39.070Z,0
2017-02-06T00:10:19.712Z,0
2017-02-06T00:11:00.363Z,0
2017-02-06T00:11:41.044Z,0
2017-02-06T00:12:21.674Z,0
2017-02-06T00:13:02.337Z,0
2017-02-06T00:13:42.983Z,0
2017-02-06T00:14:23.633Z,0
2017-02-06T00:15:04.285Z,0
2017-02-06T00:15:44.939Z,0
2017-02-06T00:16:25.591Z,0
2017-02-06T00:17:06.255Z,0
2017-02-06T00:17:46.900Z,0
2017-02-06T00:18:27.553Z,0
2017-02-06T00:19:08.118Z,0
2017-02-06T00:19:48.725Z,0
2017-02-06T00:20:29.316Z,0
2017-02-06T00:21:09.965Z,0
2017-02-06T00:21:50.535Z,0
2017-02-06T00:22:31.110Z,0
2017-02-06T00:23:11.707Z,0
2017-02-06T00:23:52.366Z,0
2017-02-06T00:24:32.946Z,0
2017-02-06T00:25:13.539Z,0
2017-02-06T00:25:54.114Z,0
2017-02-06T00:26:34.790Z,0
2017-02-06T00:27:15.352Z,0
2017-02-06T00:27:55.938Z,0
2017-02-06T00:28:36.526Z,0
2017-02-06T00:29:17.177Z,0
2017-02-06T00:29:57.750Z,0
2017-02-06T00:30:38.355Z,0
2017-02-06T00:31:19.087Z,0
2017-02-06T00:31:59.684Z,0
2017-02-06T00:32:40.241Z,0
2017-02-06T00:33:20.841Z,0
2017-02-06T00:34:02.463Z,0
2017-02-06T00:34:43.131Z,0
2017-02-06T00:35:23.689Z,0
2017-02-06T00:36:04.388Z,0
2017-02-06T00:36:45.088Z,0
2017-02-06T00:37:25.725Z,0
2017-02-06T00:38:06.302Z,0
2017-02-06T00:38:46.993Z,0
2017-02-06T00:39:27.586Z,0
2017-02-06T00:40:08.246Z,0
2017-02-06T00:40:48.821Z,0
2017-02-06T00:41:29.503Z,0
2017-02-06T00:42:10.205Z,0
2017-02-06T00:42:50.855Z,0
2017-02-06T00:43:31.429Z,0
2017-02-06T00:44:12.135Z,0
2017-02-06T00:44:52.777Z,0
2017-02-06T00:45:33.415Z,0
2017-02-06T00:46:14.078Z,0
2017-02-06T00:46:54.823Z,0
2017-02-06T00:47:35.483Z,0
2017-02-06T00:48:16.126Z,0
2017-02-06T00:48:56.780Z,0
2017-02-06T00:49:37.436Z,0
2017-02-06T00:50:18.126Z,0
2017-02-06T00:50:58.761Z,0
2017-02-06T00:51:39.421Z,0
2017-02-06T00:52:20.051Z,0
2017-02-06T00:53:00.719Z,0
2017-02-06T00:53:41.356Z,0
2017-02-06T00:54:22.002Z,0
2017-02-06T00:55:02.658Z,0
2017-02-06T00:55:43.333Z,0
2017-02-06T00:56:23.964Z,0
2017-02-06T00:57:04.609Z,0
2017-02-06T00:57:45.276Z,0
2017-02-06T00:58:25.920Z,0
2017-02-06T00:59:06.581Z,0
2017-02-06T00:59:47.381Z,0
2017-02-06T01:00:28.039Z,0
2017-02-06T01:01:08.696Z,0
2017-02-06T01:01:49.346Z,0
2017-02-06T01:02:29.991Z,0
2017-02-06T01:03:10.683Z,0
2017-02-06T01:03:51.303Z,0
2017-02-06T01:04:31.953Z,0
2017-02-06T01:05:12.609Z,0
2017-02-06T01:05:53.271Z,0
2017-02-06T01:06:33.914Z,0
2017-02-06T01:07:14.568Z,0
2017-02-06T01:07:55.224Z,0
2017-02-06T01:08:35.869Z,0
2017-02-06T01:09:16.529Z,0
2017-02-06T01:09:57.184Z,0
2017-02-06T01:10:37.836Z,0
2017-02-06T01:11:18.516Z,0
2017-02-06T01:11:59.140Z,0
2017-02-06T01:12:39.789Z,0
2017-02-06T01:13:20.558Z,0
2017-02-06T01:14:01.196Z,0
2017-02-06T01:14:41.753Z,0
2017-02-06T01:15:22.443Z,0
2017-02-06T01:16:03.057Z,0
2017-02-06T01:16:43.675Z,0
2017-02-06T01:17:24.305Z,0
2017-02-06T01:18:05.072Z,0
2017-02-06T01:18:45.770Z,0
2017-02-06T01:19:26.421Z,0
2017-02-06T01:20:07.083Z,0
2017-02-06T01:20:47.733Z,0
2017-02-06T01:21:28.374Z,0
2017-02-06T01:22:09.042Z,0
2017-02-06T01:22:49.683Z,0
2017-02-06T01:23:30.349Z,0
2017-02-06T01:24:11.001Z,0
2017-02-06T01:24:51.649Z,0
2017-02-06T01:25:32.317Z,0
2017-02-06T01:26:12.950Z,0
2017-02-06T01:26:53.598Z,0
2017-02-06T01:27:34.254Z,0
2017-02-06T01:28:14.906Z,0
2017-02-06T01:28:55.583Z,0
2017-02-06T01:29:36.240Z,0
2017-02-06T01:30:16.881Z,0
2017-02-06T01:30:57.526Z,0
2017-02-06T01:31:38.175Z,0
2017-02-06T01:32:18.837Z,0
2017-02-06T01:32:59.475Z,0
2017-02-06T01:33:40.122Z,0
2017-02-06T01:34:20.692Z,0
2017-02-06T01:35:01.343Z,0
2017-02-06T01:35:41.993Z,0
2017-02-06T01:36:22.561Z,0
2017-02-06T01:37:04.231Z,0
2017-02-06T01:37:44.869Z,0
2017-02-06T01:38:25.434Z,0
2017-02-06T01:39:06.070Z,0
2017-02-06T01:39:46.727Z,0
2017-02-06T01:40:27.289Z,0
2017-02-06T01:41:07.999Z,0
2017-02-06T01:41:48.588Z,0
2017-02-06T01:42:29.330Z,0
2017-02-06T01:43:09.959Z,0
2017-02-06T01:43:50.622Z,0
2017-02-06T01:44:31.309Z,0
2017-02-06T01:45:11.948Z,0
2017-02-06T01:45:52.522Z,0
2017-02-06T01:46:33.217Z,0
2017-02-06T01:47:13.928Z,0
2017-02-06T01:47:55.585Z,0
2017-02-06T01:48:36.146Z,0
2017-02-06T01:49:16.841Z,0
2017-02-06T01:49:57.546Z,0
2017-02-06T01:50:38.105Z,0
2017-02-06T01:51:18.757Z,0
2017-02-06T01:51:59.400Z,0
2017-02-06T01:52:39.960Z,0
2017-02-06T01:53:20.614Z,0
2017-02-06T01:54:01.267Z,0
2017-02-06T01:54:41.918Z,0
2017-02-06T01:55:22.561Z,0
2017-02-06T01:56:03.225Z,0
2017-02-06T01:56:43.888Z,0
2017-02-06T01:57:24.520Z,0
2017-02-06T01:58:06.207Z,0
2017-02-06T01:58:46.852Z,0
2017-02-06T01:59:27.503Z,0
2017-02-06T02:00:08.156Z,0
2017-02-06T02:00:48.817Z,0
2017-02-06T02:01:29.470Z,0
2017-02-06T02:02:10.114Z,0
2017-02-06T02:02:50.780Z,0
2017-02-06T02:03:31.428Z,0
2017-02-06T02:04:11.995Z,0
2017-02-06T02:04:52.632Z,0
2017-02-06T02:05:33.276Z,0
2017-02-06T02:06:13.841Z,0
2017-02-06T02:06:54.481Z,0
2017-02-06T02:07:35.140Z,0
2017-02-06T02:08:15.717Z,0
2017-02-06T02:08:56.344Z,0
2017-02-06T02:09:36.996Z,0
2017-02-06T02:10:17.672Z,0
2017-02-06T02:10:58.304Z,0
2017-02-06T02:11:38.954Z,0
2017-02-06T02:12:19.610Z,0
2017-02-06T02:13:00.255Z,0
2017-02-06T02:13:40.919Z,0
2017-02-06T02:14:21.486Z,0
2017-02-06T02:15:02.112Z,0
2017-02-06T02:15:42.764Z,0
2017-02-06T02:16:23.345Z,0
2017-02-06T02:17:03.965Z,0
2017-02-06T02:17:45.650Z,0
2017-02-06T02:18:26.224Z,0
2017-02-06T02:19:06.847Z,0
2017-02-06T02:19:47.493Z,0
2017-02-06T02:20:28.138Z,0
2017-02-06T02:21:08.809Z,0
2017-02-06T02:21:49.465Z,0
2017-02-06T02:22:30.115Z,0
2017-02-06T02:23:10.759Z,0
2017-02-06T02:23:51.421Z,0
2017-02-06T02:24:32.072Z,0
2017-02-06T02:25:12.626Z,0
2017-02-06T02:25:53.276Z,0
2017-02-06T02:26:33.932Z,0
2017-02-06T02:27:14.484Z,0
2017-02-06T02:27:55.134Z,0
2017-02-06T02:28:35.781Z,0
2017-02-06T02:29:16.333Z,0
2017-02-06T02:29:56.990Z,0
2017-02-06T02:30:37.643Z,0
2017-02-06T02:31:18.216Z,0
2017-02-06T02:31:58.899Z,0
2017-02-06T02:32:39.605Z,0
2017-02-06T02:33:20.257Z,0
2017-02-06T02:34:00.831Z,0
2017-02-06T02:34:41.559Z,0
2017-02-06T02:35:22.211Z,0
2017-02-06T02:36:02.874Z,0
2017-02-06T02:36:43.518Z,0
2017-02-06T02:37:24.199Z,0
2017-02-06T02:38:04.828Z,0
2017-02-06T02:38:45.477Z,0
2017-02-06T02:39:26.032Z,0
2017-02-06T02:40:06.722Z,0
2017-02-06T02:40:47.440Z,0
2017-02-06T02:41:28.088Z,0
2017-02-06T02:42:08.650Z,0
2017-02-06T02:42:49.243Z,0
2017-02-06T02:43:29.841Z,0
2017-02-06T02:44:10.496Z,0
2017-02-06T02:44:51.181Z,0
2017-02-06T02:45:31.802Z,0
2017-02-06T02:46:12.452Z,0
2017-02-06T02:46:53.107Z,0
2017-02-06T02:47:33.762Z,0
2017-02-06T02:48:14.413Z,0
2017-02-06T02:48:55.066Z,0
2017-02-06T02:49:35.758Z,0
2017-02-06T02:50:16.517Z,0
2017-02-06T02:50:57.265Z,0
2017-02-06T02:51:37.935Z,0
2017-02-06T02:52:18.574Z,0
2017-02-06T02:52:59.233Z,0
2017-02-06T02:53:39.873Z,0
2017-02-06T02:54:20.450Z,0
2017-02-06T02:55:01.048Z,0
2017-02-06T02:55:41.725Z,0
2017-02-06T02:56:22.399Z,0
2017-02-06T02:57:02.968Z,0
2017-02-06T02:57:43.555Z,0
2017-02-06T02:58:24.133Z,0
2017-02-06T02:59:04.802Z,0
2017-02-06T02:59:45.381Z,0
2017-02-06T03:00:26.011Z,0
2017-02-06T03:01:06.665Z,0
2017-02-06T03:01:47.220Z,0
2017-02-06T03:02:27.847Z,0
2017-02-06T03:03:08.509Z,0
2017-02-06T03:03:49.077Z,0
2017-02-06T03:04:29.751Z,0
2017-02-06T03:05:10.379Z,0
2017-02-06T03:05:50.943Z,0
2017-02-06T03:06:31.583Z,0
2017-02-06T03:07:12.220Z,0
2017-02-06T03:07:52.775Z,0
2017-02-06T03:08:33.441Z,0
2017-02-06T03:09:14.075Z,0
2017-02-06T03:09:54.734Z,0
2017-02-06T03:10:35.391Z,0
2017-02-06T03:11:16.052Z,0
2017-02-06T03:11:56.691Z,0
2017-02-06T03:12:37.343Z,0
2017-02-06T03:13:17.997Z,0
2017-02-06T03:13:58.656Z,0
2017-02-06T03:14:39.315Z,0
2017-02-06T03:15:19.964Z,0
2017-02-06T03:16:00.614Z,0
2017-02-06T03:16:41.172Z,0
2017-02-06T03:17:21.769Z,0
2017-02-06T03:18:02.455Z,0
2017-02-06T03:18:43.070Z,0
2017-02-06T03:19:23.733Z,0
2017-02-06T03:20:04.324Z,0
2017-02-06T03:20:44.887Z,0
2017-02-06T03:21:25.505Z,0
2017-02-06T03:22:07.103Z,0
2017-02-06T03:22:47.674Z,0
2017-02-06T03:23:28.316Z,0
2017-02-06T03:24:08.961Z,0
2017-02-06T03:24:49.611Z,0
2017-02-06T03:25:30.263Z,0
2017-02-06T03:26:10.922Z,0
2017-02-06T03:26:51.582Z,0
2017-02-06T03:27:32.220Z,0
2017-02-06T03:28:12.876Z,0
2017-02-06T03:28:53.528Z,0
2017-02-06T03:29:34.112Z,0
2017-02-06T03:30:14.693Z,0
2017-02-06T03:30:55.267Z,0
2017-02-06T03:31:35.952Z,0
2017-02-06T03:32:16.512Z,0
2017-02-06T03:32:57.116Z,0
2017-02-06T03:33:37.803Z,0
2017-02-06T03:34:18.461Z,0
2017-02-06T03:34:59.109Z,0
2017-02-06T03:35:39.763Z,0
2017-02-06T03:36:20.421Z,0
2017-02-06T03:37:01.073Z,0
2017-02-06T03:37:41.727Z,0
2017-02-06T03:38:22.382Z,0
2017-02-06T03:39:03.033Z,0
2017-02-06T03:39:43.684Z,0
2017-02-06T03:40:24.330Z,0
2017-02-06T03:41:04.995Z,0
2017-02-06T03:41:45.645Z,0
2017-02-06T03:42:26.299Z,0
2017-02-06T03:43:06.947Z,0
2017-02-06T03:43:47.619Z,0
2017-02-06T03:44:28.256Z,0
2017-02-06T03:45:08.906Z,0
2017-02-06T03:45:49.559Z,0
2017-02-06T03:46:30.215Z,0
2017-02-06T03:47:10.862Z,0
2017-02-06T03:47:51.516Z,0
2017-02-06T03:48:32.171Z,0
2017-02-06T03:49:12.810Z,0
2017-02-06T03:49:53.374Z,0
2017-02-06T03:50:35.023Z,0
2017-02-06T03:51:15.705Z,0
2017-02-06T03:51:56.359Z,0
2017-02-06T03:52:36.919Z,0
2017-02-06T03:53:17.493Z,0
2017-02-06T03:53:58.110Z,0
2017-02-06T03:54:38.764Z,0
2017-02-06T03:55:19.326Z,0
2017-02-06T03:55:59.970Z,0
2017-02-06T03:56:40.621Z,0
2017-02-06T03:57:21.182Z,0
2017-02-06T03:58:01.822Z,0
2017-02-06T03:58:42.477Z,0
2017-02-06T03:59:23.047Z,0
2017-02-06T04:00:03.680Z,0
2017-02-06T04:00:45.254Z,0
2017-02-06T04:01:25.906Z,0
2017-02-06T04:02:06.565Z,0
2017-02-06T04:02:47.213Z,0
2017-02-06T04:03:27.864Z,0
2017-02-06T04:04:08.518Z,0
2017-02-06T04:04:49.090Z,0
2017-02-06T04:05:29.722Z,0
2017-02-06T04:06:10.376Z,0
2017-02-06T04:06:50.928Z,0
2017-02-06T04:07:31.579Z,0
2017-02-06T04:08:12.230Z,0
2017-02-06T04:08:52.803Z,0
2017-02-06T04:09:33.433Z,0
2017-02-06T04:10:14.094Z,0
2017-02-06T04:10:54.663Z,0
2017-02-06T04:11:35.349Z,0
2017-02-06T04:12:15.944Z,0
2017-02-06T04:12:56.601Z,0
2017-02-06T04:13:37.162Z,0
2017-02-06T04:14:17.749Z,0
2017-02-06T04:14:58.351Z,0
2017-02-06T04:15:39.003Z,0
2017-02-06T04:16:19.642Z,0
2017-02-06T04:17:00.310Z,0
2017-02-06T04:17:40.962Z,0
2017-02-06T04:18:21.615Z,0
2017-02-06T04:19:02.300Z,0
2017-02-06T04:19:42.929Z,0
2017-02-06T04:20:23.574Z,0
2017-02-06T04:21:04.221Z,0
2017-02-06T04:21:44.882Z,0
2017-02-06T04:22:25.533Z,0
2017-02-06T04:23:06.184Z,0
2017-02-06T04:23:46.843Z,0
2017-02-06T04:24:27.491Z,80
2017-02-06T04:25:08.146Z,0
2017-02-06T04:25:48.786Z,0
2017-02-06T04:26:29.450Z,0
2017-02-06T04:27:10.032Z,0
2017-02-06T04:27:50.616Z,0
2017-02-06T04:28:31.305Z,0
2017-02-06T04:29:11.959Z,0
2017-02-06T04:29:52.533Z,0
2017-02-06T04:30:33.161Z,0
2017-02-06T04:31:13.821Z,0
2017-02-06T04:31:54.383Z,0
2017-02-06T04:32:35.017Z,0
2017-02-06T04:33:15.672Z,0
2017-02-06T04:33:56.244Z,0
2017-02-06T04:34:36.889Z,0
2017-02-06T04:35:17.529Z,0
2017-02-06T04:35:58.195Z,0
2017-02-06T04:36:38.837Z,0
2017-02-06T04:37:19.480Z,0
2017-02-06T04:38:00.140Z,0
2017-02-06T04:38:40.789Z,0
2017-02-06T04:39:21.445Z,0
2017-02-06T04:40:02.112Z,0
2017-02-06T04:40:42.753Z,0
2017-02-06T04:41:23.408Z,0
2017-02-06T04:42:04.055Z,0
2017-02-06T04:42:44.712Z,0
2017-02-06T04:43:25.397Z,0
2017-02-06T04:44:06.017Z,0
2017-02-06T04:44:46.671Z,0
2017-02-06T04:45:27.321Z,0
2017-02-06T04:46:07.975Z,0
2017-02-06T04:46:48.639Z,0
2017-02-06T04:47:29.384Z,0
2017-02-06T04:48:10.038Z,0
2017-02-06T04:48:50.687Z,0
2017-02-06T04:49:31.344Z,0
2017-02-06T04:50:11.995Z,0
2017-02-06T04:50:52.551Z,0
2017-02-06T04:51:33.263Z,0
2017-02-06T04:52:13.943Z,0
2017-02-06T04:52:54.609Z,0
2017-02-06T04:53:35.176Z,0
2017-02-06T04:54:15.874Z,0
2017-02-06T04:54:56.569Z,0
2017-02-06T04:55:37.245Z,0
2017-02-06T04:56:17.871Z,0
2017-02-06T04:56:58.527Z,0
2017-02-06T04:57:39.177Z,0
2017-02-06T04:58:19.832Z,0
2017-02-06T04:59:00.484Z,0
2017-02-06T04:59:41.138Z,0
2017-02-06T05:00:21.790Z,0
2017-02-06T05:01:02.356Z,0
2017-02-06T05:01:43.069Z,0
2017-02-06T05:02:23.751Z,0
2017-02-06T05:03:04.404Z,0
2017-02-06T05:03:44.958Z,0
2017-02-06T05:04:25.569Z,0
2017-02-06T05:05:06.158Z,0
2017-02-06T05:05:46.730Z,0
2017-02-06T05:06:27.359Z,0
2017-02-06T05:07:08.015Z,0
2017-02-06T05:07:48.636Z,0
2017-02-06T05:08:29.219Z,0
2017-02-06T05:09:09.871Z,0
2017-02-06T05:09:50.441Z,0
2017-02-06T05:10:31.075Z,0
2017-02-06T05:11:11.731Z,0
2017-02-06T05:11:52.300Z,0
2017-02-06T05:12:32.930Z,0
2017-02-06T05:13:13.585Z,0
2017-02-06T05:13:54.157Z,0
2017-02-06T05:14:34.781Z,0
2017-02-06T05:15:15.450Z,0
2017-02-06T05:15:56.014Z,0
2017-02-06T05:16:36.607Z,0
2017-02-06T05:17:17.195Z,0
2017-02-06T05:17:57.848Z,0
2017-02-06T05:18:38.412Z,0
2017-02-06T05:19:19.020Z,0
2017-02-06T05:19:59.603Z,0
2017-02-06T05:20:40.171Z,0
2017-02-06T05:21:20.804Z,0
2017-02-06T05:22:01.458Z,0
2017-02-06T05:22:42.024Z,0
2017-02-06T05:23:22.662Z,0
2017-02-06T05:24:03.324Z,0
2017-02-06T05:24:43.892Z,0
2017-02-06T05:25:24.517Z,0
2017-02-06T05:26:05.170Z,0
2017-02-06T05:26:45.825Z,0
2017-02-06T05:27:26.477Z,0
2017-02-06T05:28:07.133Z,0
2017-02-06T05:28:47.782Z,0
2017-02-06T05:29:28.437Z,0
2017-02-06T05:30:09.088Z,0
2017-02-06T05:30:49.777Z,0
2017-02-06T05:31:30.396Z,0
2017-02-06T05:32:11.048Z,0
2017-02-06T05:32:51.701Z,0
2017-02-06T05:33:32.360Z,0
2017-02-06T05:34:13.004Z,0
2017-02-06T05:34:53.603Z,0
2017-02-06T05:35:34.280Z,0
2017-02-06T05:36:14.863Z,0
2017-02-06T05:36:55.531Z,0
2017-02-06T05:37:36.107Z,0
2017-02-06T05:38:16.778Z,0
2017-02-06T05:38:57.366Z,0
2017-02-06T05:39:38.032Z,0
2017-02-06T05:40:18.608Z,0
2017-02-06T05:40:59.227Z,0
2017-02-06T05:41:39.882Z,0
2017-02-06T05:42:20.447Z,0
2017-02-06T05:43:01.089Z,0
2017-02-06T05:43:41.742Z,0
2017-02-06T05:44:22.305Z,0
2017-02-06T05:45:02.939Z,0
2017-02-06T05:45:43.510Z,0
2017-02-06T05:46:24.148Z,0
2017-02-06T05:47:04.798Z,0
2017-02-06T05:47:45.453Z,0
2017-02-06T05:48:26.008Z,0
2017-02-06T05:49:06.658Z,0
2017-02-06T05:49:47.232Z,0
2017-02-06T05:50:27.811Z,0
2017-02-06T05:51:08.433Z,0
2017-02-06T05:51:49.067Z,0
2017-02-06T05:52:29.637Z,0
2017-02-06T05:53:10.215Z,0
2017-02-06T05:53:50.817Z,0
2017-02-06T05:54:31.473Z,0
2017-02-06T05:55:12.122Z,0
2017-02-06T05:55:52.777Z,0
2017-02-06T05:56:33.429Z,0
2017-02-06T05:57:14.080Z,0
2017-02-06T05:57:54.737Z,0
2017-02-06T05:58:35.387Z,0
2017-02-06T05:59:16.042Z,0
2017-02-06T05:59:56.694Z,0
2017-02-06T06:00:37.346Z,0
2017-02-06T06:01:18.001Z,0
2017-02-06T06:01:58.655Z,0
2017-02-06T06:02:39.307Z,0
2017-02-06T06:03:19.959Z,0
2017-02-06T06:04:00.621Z,0
2017-02-06T06:04:41.165Z,0
2017-02-06T06:05:21.768Z,0
2017-02-06T06:06:02.424Z,0
2017-02-06T06:06:43.089Z,0
2017-02-06T06:07:23.741Z,0
2017-02-06T06:08:04.385Z,0
2017-02-06T06:08:45.050Z,0
2017-02-06T06:09:25.685Z,0
2017-02-06T06:10:06.358Z,0
2017-02-06T06:10:47.000Z,0
2017-02-06T06:11:27.650Z,0
2017-02-06T06:12:08.292Z,0
2017-02-06T06:12:48.954Z,0
2017-02-06T06:13:29.620Z,0
2017-02-06T06:14:10.257Z,0
2017-02-06T06:14:50.918Z,0
2017-02-06T06:15:31.557Z,0
2017-02-06T06:16:12.212Z,0
2017-02-06T06:16:52.873Z,0
2017-02-06T06:17:33.567Z,0
2017-02-06T06:18:14.184Z,0
2017-02-06T06:18:54.826Z,0
2017-02-06T06:19:35.483Z,0
2017-02-06T06:20:16.140Z,0
2017-02-06T06:20:56.802Z,0
2017-02-06T06:21:37.439Z,0
2017-02-06T06:22:18.090Z,0
2017-02-06T06:22:58.748Z,0
2017-02-06T06:23:39.415Z,0
2017-02-06T06:24:20.081Z,0
2017-02-06T06:25:00.750Z,0
2017-02-06T06:25:41.407Z,0
2017-02-06T06:26:22.055Z,0
2017-02-06T06:27:02.714Z,0
2017-02-06T06:27:43.365Z,0
2017-02-06T06:28:24.065Z,0
2017-02-06T06:29:04.674Z,0
2017-02-06T06:29:45.426Z,0
2017-02-06T06:30:25.986Z,0
2017-02-06T06:31:06.600Z,0
2017-02-06T06:31:47.279Z,0
2017-02-06T06:32:27.935Z,0
2017-02-06T06:33:08.502Z,0
2017-02-06T06:33:49.097Z,0
2017-02-06T06:34:29.685Z,4
2017-02-06T06:35:10.655Z,4
2017-02-06T06:35:51.212Z,4
2017-02-06T06:36:31.812Z,4
2017-02-06T06:37:12.478Z,4
2017-02-06T06:37:53.130Z,4
2017-02-06T06:38:33.760Z,4
2017-02-06T06:39:14.424Z,4
2017-02-06T06:39:55.079Z,4
2017-02-06T06:40:35.739Z,4
2017-02-06T06:41:16.376Z,8
2017-02-06T06:41:57.042Z,8
2017-02-06T06:42:37.679Z,4
2017-02-06T06:43:18.356Z,4
2017-02-06T06:43:59.037Z,8
2017-02-06T06:44:39.646Z,8
2017-02-06T06:45:20.313Z,8
2017-02-06T06:46:00.940Z,12
2017-02-06T06:46:57.367Z,12
2017-02-06T06:47:52.877Z,16
2017-02-06T06:48:45.401Z,16
2017-02-06T06:49:40.892Z,20
2017-02-06T06:50:21.487Z,20
2017-02-06T06:51:02.050Z,20
2017-02-06T06:51:53.249Z,24
2017-02-06T06:52:39.528Z,24
2017-02-06T06:53:20.105Z,28
2017-02-06T06:54:15.272Z,32
2017-02-06T06:55:06.481Z,32
2017-02-06T07:23:05.158Z,192
2017-02-06T07:23:50.795Z,192
2017-02-06T07:24:31.445Z,200
2017-02-06T07:25:12.099Z,212
2017-02-06T07:25:54.705Z,224
2017-02-06T07:26:46.233Z,228
2017-02-06T07:27:37.815Z,248
2017-02-06T07:28:25.319Z,276
2017-02-06T07:29:16.834Z,308
2017-02-06T07:30:02.296Z,332
2017-02-06T08:14:26.607Z,1100
2017-02-06T08:15:09.456Z,1112
2017-02-06T08:15:50.108Z,1120
2017-02-06T08:16:30.776Z,1140
2017-02-06T08:17:11.417Z,1192
2017-02-06T08:17:52.065Z,1216
2017-02-06T08:18:32.716Z,1232
2017-02-06T08:19:13.381Z,1260
2017-02-06T08:19:53.969Z,1296
2017-02-06T08:20:34.729Z,1316
2017-02-06T08:21:15.436Z,1260
2017-02-06T08:21:56.089Z,1172
2017-02-06T08:22:36.756Z,1076
2017-02-06T08:23:17.403Z,1028
2017-02-06T08:23:58.061Z,1048
2017-02-06T08:24:38.699Z,1168
2017-02-06T08:25:19.353Z,1144
2017-02-06T08:26:00.017Z,1224
2017-02-06T08:26:40.671Z,1296
2017-02-06T08:27:21.218Z,1368
2017-02-06T08:28:01.798Z,1424
2017-02-06T08:28:42.411Z,1424
2017-02-06T08:29:23.060Z,1436
2017-02-06T08:30:03.609Z,1464
2017-02-06T08:30:44.210Z,1452
2017-02-06T08:31:24.821Z,1424
2017-02-06T08:32:05.483Z,1400
2017-02-06T08:32:46.031Z,1388
2017-02-06T08:33:26.674Z,1360
2017-02-06T08:34:07.323Z,1332
2017-02-06T08:34:48.896Z,1328
2017-02-06T08:35:29.464Z,1328
2017-02-06T08:36:12.098Z,1340
2017-02-06T08:36:52.669Z,1392
2017-02-06T08:37:33.330Z,1428
2017-02-06T08:38:14.039Z,1428
2017-02-06T08:38:54.677Z,1440
2017-02-06T08:39:35.233Z,1432
2017-02-06T08:40:15.821Z,1432
2017-02-06T08:40:56.383Z,1472
2017-02-06T08:41:37.078Z,1552
2017-02-06T08:42:17.642Z,1588
2017-02-06T08:42:58.273Z,1592
2017-02-06T08:43:38.947Z,1604
2017-02-06T08:44:19.575Z,1640
2017-02-06T08:45:00.238Z,1676
2017-02-06T08:45:42.833Z,1728
2017-02-06T08:46:23.407Z,1788
2017-02-06T08:47:03.973Z,1856
2017-02-06T08:47:44.580Z,1900
2017-02-06T08:48:25.238Z,1920
2017-02-06T08:49:05.809Z,1888
2017-02-06T08:49:46.423Z,1852
2017-02-06T08:50:26.992Z,1816
2017-02-06T08:51:07.639Z,1808
2017-02-06T08:51:48.297Z,1784
2017-02-06T08:52:28.950Z,1784
2017-02-06T08:53:09.632Z,1800
2017-02-06T08:53:50.266Z,1852
2017-02-06T08:54:30.917Z,1984
2017-02-06T08:55:11.462Z,2176
2017-02-06T08:55:52.076Z,2408
2017-02-06T08:56:32.758Z,2512
2017-02-06T08:57:13.427Z,2488
2017-02-06T08:57:53.988Z,2424
2017-02-06T08:58:34.566Z,2356
2017-02-06T08:59:15.168Z,2312
2017-02-06T08:59:55.833Z,2280
2017-02-06T09:00:36.487Z,2264
2017-02-06T09:01:17.142Z,2288
2017-02-06T09:01:57.793Z,2248
2017-02-06T09:02:38.436Z,2256
2017-02-06T09:03:19.099Z,2292
2017-02-06T09:03:59.773Z,2352
2017-02-06T09:04:40.402Z,2436
2017-02-06T09:05:20.945Z,2496
2017-02-06T09:06:01.607Z,2552
2017-02-06T09:06:42.254Z,2576
2017-02-06T09:07:22.846Z,2544
2017-02-06T09:08:05.512Z,2504
2017-02-06T09:08:47.192Z,2460
2017-02-06T09:09:27.752Z,2428
2017-02-06T09:10:08.300Z,2464
2017-02-06T09:10:48.875Z,2472
2017-02-06T09:11:29.493Z,2512
2017-02-06T09:12:10.071Z,2520
2017-02-06T09:12:50.746Z,2516
2017-02-06T09:13:32.378Z,2484
2017-02-06T09:14:13.026Z,2476
2017-02-06T09:14:53.578Z,2492
2017-02-06T09:15:34.184Z,2480
2017-02-06T09:16:14.785Z,2488
2017-02-06T09:16:55.431Z,2528
2017-02-06T09:17:36.085Z,2580
2017-02-06T09:18:16.735Z,2580
2017-02-06T09:18:57.398Z,2560
2017-02-06T09:19:38.059Z,2548
2017-02-06T09:20:18.609Z,2528
2017-02-06T09:20:59.203Z,2488
2017-02-06T09:21:39.911Z,2472
2017-02-06T09:22:21.620Z,2456
2017-02-06T09:23:02.157Z,2544
2017-02-06T09:23:43.760Z,2472
2017-02-06T09:24:24.352Z,2432
2017-02-06T09:25:05.006Z,2372
2017-02-06T09:25:45.649Z,2336
2017-02-06T09:26:26.315Z,2372
2017-02-06T09:27:06.969Z,2448
2017-02-06T09:27:47.620Z,2492
2017-02-06T09:28:28.269Z,2556
2017-02-06T09:29:08.928Z,2628
2017-02-06T09:29:49.579Z,2684
2017-02-06T09:30:30.134Z,2716
2017-02-06T09:31:10.717Z,2720
2017-02-06T09:31:51.335Z,2676
2017-02-06T09:32:31.980Z,2584
2017-02-06T09:33:12.531Z,2444
2017-02-06T09:33:53.118Z,2324
2017-02-06T09:34:33.748Z,2252
2017-02-06T09:35:14.393Z,2240
2017-02-06T09:35:55.060Z,2276
2017-02-06T09:36:35.714Z,2344
2017-02-06T09:37:16.262Z,2392
2017-02-06T09:37:56.853Z,2396
2017-02-06T09:38:37.519Z,2372
2017-02-06T09:39:18.158Z,2312
2017-02-06T09:39:58.813Z,2256
2017-02-06T09:40:39.421Z,2228
2017-02-06T09:41:21.998Z,2212
2017-02-06T09:42:02.571Z,2228
2017-02-06T09:42:43.162Z,2260
2017-02-06T09:43:23.759Z,2304
2017-02-06T09:44:04.432Z,2360
2017-02-06T09:44:45.020Z,2420
2017-02-06T09:45:25.575Z,2472
2017-02-06T09:46:07.189Z,2516
2017-02-06T09:46:47.843Z,2540
2017-02-06T09:47:28.406Z,2556
2017-02-06T09:48:10.018Z,2632
2017-02-06T09:48:51.652Z,2756
2017-02-06T09:49:32.296Z,2900
2017-02-06T09:50:12.858Z,3056
2017-02-06T09:50:53.435Z,3188
2017-02-06T09:51:34.059Z,3272
2017-02-06T09:52:14.636Z,3288
2017-02-06T09:52:57.310Z,3216
2017-02-06T09:53:37.963Z,3060
2017-02-06T09:54:18.507Z,2900
2017-02-06T09:54:59.182Z,2820
2017-02-06T09:55:39.818Z,2824
2017-02-06T09:56:20.469Z,2868
2017-02-06T09:57:01.124Z,2880
2017-02-06T09:57:41.745Z,2844
2017-02-06T09:58:22.380Z,2784
2017-02-06T09:59:03.050Z,2736
2017-02-06T09:59:43.705Z,2756
2017-02-06T10:00:26.412Z,2808
2017-02-06T10:01:07.042Z,2864
2017-02-06T10:01:47.711Z,2904
2017-02-06T10:02:28.345Z,2924
2017-02-06T10:03:09.010Z,2924
2017-02-06T10:03:49.652Z,2900
2017-02-06T10:04:30.306Z,2836
2017-02-06T10:05:10.961Z,2784
2017-02-06T10:05:51.570Z,2736
2017-02-06T10:06:32.238Z,2724
2017-02-06T10:07:12.813Z,2724
2017-02-06T10:07:57.980Z,2720
2017-02-06T10:08:38.833Z,2708
2017-02-06T10:09:19.429Z,2704
2017-02-06T10:10:01.062Z,2676
2017-02-06T10:10:41.724Z,2664
2017-02-06T10:11:22.279Z,2676
2017-02-06T10:12:02.930Z,2696
2017-02-06T10:12:43.568Z,2732
2017-02-06T10:13:24.139Z,2772
2017-02-06T10:14:04.765Z,2756
2017-02-06T10:14:45.420Z,2696
2017-02-06T10:15:25.989Z,2628
2017-02-06T10:16:06.635Z,2592
2017-02-06T10:16:47.276Z,2560
2017-02-06T10:17:27.947Z,2560
2017-02-06T10:18:08.584Z,2580
2017-02-06T10:18:49.239Z,2584
2017-02-06T10:19:29.893Z,2576
2017-02-06T10:20:10.540Z,2564
2017-02-06T10:20:51.207Z,2532
2017-02-06T10:21:31.860Z,2484
2017-02-06T10:22:12.514Z,2428
2017-02-06T10:22:53.167Z,2372
2017-02-06T10:23:33.819Z,2316
2017-02-06T10:24:14.473Z,2268
2017-02-06T10:24:55.126Z,2212
2017-02-06T10:25:35.713Z,2172
2017-02-06T10:26:16.413Z,2128
2017-02-06T10:26:57.112Z,2160
2017-02-06T10:27:37.761Z,2108
2017-02-06T10:28:18.347Z,1924
2017-02-06T10:28:58.998Z,1772
2017-02-06T10:29:39.707Z,1616
2017-02-06T10:30:20.338Z,1464
2017-02-06T10:31:00.992Z,1344
2017-02-06T10:31:41.654Z,1268
2017-02-06T10:32:22.323Z,1332
2017-02-06T10:33:02.975Z,1336
2017-02-06T10:33:43.620Z,1160
2017-02-06T10:34:24.296Z,1056
2017-02-06T10:35:04.912Z,992
2017-02-06T10:35:45.476Z,976
2017-02-06T10:36:26.071Z,996
2017-02-06T10:37:06.687Z,1052
2017-02-06T10:37:47.320Z,1108
2017-02-06T10:38:27.992Z,1172
2017-02-06T10:39:08.584Z,1240
2017-02-06T10:39:49.179Z,1424
2017-02-06T10:40:29.832Z,1728
2017-02-06T10:41:10.438Z,2232
2017-02-06T10:41:51.033Z,2640
2017-02-06T10:42:31.685Z,2820
2017-02-06T10:43:12.266Z,3192
2017-02-06T10:43:52.917Z,3548
2017-02-06T10:44:33.546Z,3904
2017-02-06T10:45:14.115Z,4040
2017-02-06T10:45:54.750Z,3976
2017-02-06T10:46:35.400Z,3880
2017-02-06T10:47:15.959Z,3900
2017-02-06T10:47:56.635Z,4140
2017-02-06T10:48:37.258Z,4184
2017-02-06T10:49:17.913Z,3876
2017-02-06T10:49:58.573Z,3436
2017-02-06T10:50:39.219Z,2872
2017-02-06T10:51:19.868Z,2580
2017-02-06T10:52:00.522Z,2524
2017-02-06T10:52:41.174Z,2556
2017-02-06T10:53:21.842Z,2528
2017-02-06T10:54:02.481Z,2496
2017-02-06T10:54:43.134Z,2420
2017-02-06T10:55:23.787Z,2272
2017-02-06T10:56:04.441Z,2116